sensor_id;sensor_type;location;lat;lon;timestamp;P1;durP1;ratioP1;P2;durP2;ratioP2
76475;SDS011;65308;50.078;14.854;2023-01-26T00:00:01;20.98;;;9.70;;
76475;SDS011;65308;50.078;14.854;2023-01-26T00:02:28;25.70;;;11.18;;
76475;SDS011;65308;50.078;14.854;2023-01-26T00:04:55;21.35;;;10.20;;
76475;SDS011;65308;50.078;14.854;2023-01-26T00:07:22;22.80;;;10.27;;
76475;SDS011;65308;50.078;14.854;2023-01-26T00:09:49;25.48;;;11.18;;
76475;SDS011;65308;50.078;14.854;2023-01-26T00:12:15;25.05;;;10.90;;
76475;SDS011;65308;50.078;14.854;2023-01-26T00:14:43;23.83;;;10.95;;
76475;SDS011;65308;50.078;14.854;2023-01-26T00:17:16;21.50;;;10.57;;
76475;SDS011;65308;50.078;14.854;2023-01-26T00:19:52;24.35;;;10.32;;
76475;SDS011;65308;50.078;14.854;2023-01-26T00:22:19;25.90;;;11.63;;
76475;SDS011;65308;50.078;14.854;2023-01-26T00:24:46;25.73;;;10.65;;
76475;SDS011;65308;50.078;14.854;2023-01-26T00:27:13;25.98;;;10.35;;
76475;SDS011;65308;50.078;14.854;2023-01-26T00:29:40;23.20;;;10.13;;
76475;SDS011;65308;50.078;14.854;2023-01-26T00:32:08;22.27;;;11.60;;
76475;SDS011;65308;50.078;14.854;2023-01-26T00:34:35;21.98;;;10.57;;
76475;SDS011;65308;50.078;14.854;2023-01-26T00:37:02;26.48;;;11.15;;
76475;SDS011;65308;50.078;14.854;2023-01-26T00:39:28;22.13;;;9.95;;
76475;SDS011;65308;50.078;14.854;2023-01-26T00:41:55;24.20;;;10.45;;
76475;SDS011;65308;50.078;14.854;2023-01-26T00:44:38;20.90;;;9.60;;
76475;SDS011;65308;50.078;14.854;2023-01-26T00:47:07;19.42;;;9.32;;
76475;SDS011;65308;50.078;14.854;2023-01-26T00:49:37;23.40;;;9.48;;
76475;SDS011;65308;50.078;14.854;2023-01-26T00:52:04;23.25;;;10.32;;
76475;SDS011;65308;50.078;14.854;2023-01-26T00:54:31;20.75;;;9.95;;
76475;SDS011;65308;50.078;14.854;2023-01-26T00:56:58;28.00;;;11.63;;
76475;SDS011;65308;50.078;14.854;2023-01-26T00:59:25;22.80;;;9.70;;
76475;SDS011;65308;50.078;14.854;2023-01-26T01:01:53;21.05;;;9.98;;
76475;SDS011;65308;50.078;14.854;2023-01-26T01:04:23;25.38;;;10.07;;
76475;SDS011;65308;50.078;14.854;2023-01-26T01:06:50;22.27;;;9.25;;
76475;SDS011;65308;50.078;14.854;2023-01-26T01:09:17;21.05;;;9.65;;
76475;SDS011;65308;50.078;14.854;2023-01-26T01:11:44;24.88;;;10.43;;
76475;SDS011;65308;50.078;14.854;2023-01-26T01:14:10;21.63;;;10.07;;
76475;SDS011;65308;50.078;14.854;2023-01-26T01:16:38;26.17;;;10.50;;
76475;SDS011;65308;50.078;14.854;2023-01-26T01:19:05;22.20;;;10.07;;
76475;SDS011;65308;50.078;14.854;2023-01-26T01:21:33;19.42;;;10.27;;
76475;SDS011;65308;50.078;14.854;2023-01-26T01:24:00;22.20;;;9.52;;
76475;SDS011;65308;50.078;14.854;2023-01-26T01:26:27;22.20;;;9.38;;
76475;SDS011;65308;50.078;14.854;2023-01-26T01:28:54;22.65;;;10.00;;
76475;SDS011;65308;50.078;14.854;2023-01-26T01:31:21;24.35;;;11.02;;
76475;SDS011;65308;50.078;14.854;2023-01-26T01:33:50;23.95;;;10.48;;
76475;SDS011;65308;50.078;14.854;2023-01-26T01:38:45;22.67;;;9.55;;
76475;SDS011;65308;50.078;14.854;2023-01-26T01:41:13;22.25;;;9.50;;
76475;SDS011;65308;50.078;14.854;2023-01-26T01:46:11;22.08;;;9.77;;
76475;SDS011;65308;50.078;14.854;2023-01-26T01:48:46;23.05;;;10.68;;
76475;SDS011;65308;50.078;14.854;2023-01-26T01:51:17;23.20;;;9.90;;
76475;SDS011;65308;50.078;14.854;2023-01-26T01:53:52;22.25;;;10.07;;
76475;SDS011;65308;50.078;14.854;2023-01-26T01:56:22;24.50;;;11.07;;
76475;SDS011;65308;50.078;14.854;2023-01-26T01:58:53;23.52;;;10.75;;
76475;SDS011;65308;50.078;14.854;2023-01-26T02:01:23;21.67;;;9.68;;
76475;SDS011;65308;50.078;14.854;2023-01-26T02:03:51;26.05;;;10.90;;
76475;SDS011;65308;50.078;14.854;2023-01-26T02:06:22;23.35;;;10.10;;
76475;SDS011;65308;50.078;14.854;2023-01-26T02:08:55;22.15;;;9.93;;
76475;SDS011;65308;50.078;14.854;2023-01-26T02:11:24;21.42;;;9.13;;
76475;SDS011;65308;50.078;14.854;2023-01-26T02:13:53;23.08;;;10.55;;
76475;SDS011;65308;50.078;14.854;2023-01-26T02:16:22;29.63;;;11.77;;
76475;SDS011;65308;50.078;14.854;2023-01-26T02:18:49;22.02;;;10.15;;
76475;SDS011;65308;50.078;14.854;2023-01-26T02:21:16;21.38;;;10.13;;
76475;SDS011;65308;50.078;14.854;2023-01-26T02:23:47;20.50;;;9.20;;
76475;SDS011;65308;50.078;14.854;2023-01-26T02:26:21;26.08;;;11.45;;
76475;SDS011;65308;50.078;14.854;2023-01-26T02:28:49;27.48;;;12.00;;
76475;SDS011;65308;50.078;14.854;2023-01-26T02:31:17;25.13;;;12.00;;
76475;SDS011;65308;50.078;14.854;2023-01-26T02:33:44;28.98;;;11.50;;
76475;SDS011;65308;50.078;14.854;2023-01-26T02:36:17;21.85;;;10.40;;
76475;SDS011;65308;50.078;14.854;2023-01-26T02:38:48;26.80;;;10.90;;
76475;SDS011;65308;50.078;14.854;2023-01-26T02:41:18;24.40;;;10.65;;
76475;SDS011;65308;50.078;14.854;2023-01-26T02:44:00;26.25;;;9.77;;
76475;SDS011;65308;50.078;14.854;2023-01-26T02:46:29;22.73;;;10.00;;
76475;SDS011;65308;50.078;14.854;2023-01-26T02:48:56;25.50;;;10.20;;
76475;SDS011;65308;50.078;14.854;2023-01-26T02:51:40;24.15;;;10.13;;
76475;SDS011;65308;50.078;14.854;2023-01-26T02:54:07;20.92;;;9.13;;
76475;SDS011;65308;50.078;14.854;2023-01-26T02:56:54;17.20;;;7.45;;
76475;SDS011;65308;50.078;14.854;2023-01-26T02:59:21;12.70;;;6.13;;
76475;SDS011;65308;50.078;14.854;2023-01-26T03:01:47;15.50;;;7.53;;
76475;SDS011;65308;50.078;14.854;2023-01-26T03:04:16;16.13;;;7.70;;
76475;SDS011;65308;50.078;14.854;2023-01-26T03:06:42;13.38;;;6.40;;
76475;SDS011;65308;50.078;14.854;2023-01-26T03:09:09;15.35;;;6.85;;
76475;SDS011;65308;50.078;14.854;2023-01-26T03:11:36;17.48;;;7.93;;
76475;SDS011;65308;50.078;14.854;2023-01-26T03:14:07;18.77;;;8.07;;
76475;SDS011;65308;50.078;14.854;2023-01-26T03:16:35;19.05;;;9.05;;
76475;SDS011;65308;50.078;14.854;2023-01-26T03:19:02;22.98;;;8.82;;
76475;SDS011;65308;50.078;14.854;2023-01-26T03:21:46;19.70;;;9.45;;
76475;SDS011;65308;50.078;14.854;2023-01-26T03:24:30;15.55;;;7.75;;
76475;SDS011;65308;50.078;14.854;2023-01-26T03:27:14;14.25;;;6.57;;
76475;SDS011;65308;50.078;14.854;2023-01-26T03:29:53;15.43;;;6.80;;
76475;SDS011;65308;50.078;14.854;2023-01-26T03:32:21;15.57;;;6.38;;
76475;SDS011;65308;50.078;14.854;2023-01-26T03:34:49;13.20;;;6.60;;
76475;SDS011;65308;50.078;14.854;2023-01-26T03:37:15;18.85;;;8.43;;
76475;SDS011;65308;50.078;14.854;2023-01-26T03:39:46;20.65;;;8.90;;
76475;SDS011;65308;50.078;14.854;2023-01-26T03:42:31;18.48;;;8.68;;
76475;SDS011;65308;50.078;14.854;2023-01-26T03:45:15;19.95;;;8.07;;
76475;SDS011;65308;50.078;14.854;2023-01-26T03:48:05;17.80;;;9.15;;
76475;SDS011;65308;50.078;14.854;2023-01-26T03:50:49;17.90;;;7.82;;
76475;SDS011;65308;50.078;14.854;2023-01-26T03:53:33;14.50;;;6.85;;
76475;SDS011;65308;50.078;14.854;2023-01-26T03:56:17;15.25;;;7.45;;
76475;SDS011;65308;50.078;14.854;2023-01-26T03:58:46;16.40;;;8.43;;
76475;SDS011;65308;50.078;14.854;2023-01-26T04:01:15;18.55;;;8.00;;
76475;SDS011;65308;50.078;14.854;2023-01-26T04:03:49;16.23;;;7.70;;
76475;SDS011;65308;50.078;14.854;2023-01-26T04:06:35;18.08;;;7.93;;
76475;SDS011;65308;50.078;14.854;2023-01-26T04:09:21;17.85;;;8.38;;
76475;SDS011;65308;50.078;14.854;2023-01-26T04:11:48;13.23;;;6.85;;
76475;SDS011;65308;50.078;14.854;2023-01-26T04:14:15;16.63;;;7.88;;
76475;SDS011;65308;50.078;14.854;2023-01-26T04:16:59;15.18;;;7.25;;
76475;SDS011;65308;50.078;14.854;2023-01-26T04:19:46;14.05;;;7.00;;
76475;SDS011;65308;50.078;14.854;2023-01-26T04:22:32;15.57;;;7.10;;
76475;SDS011;65308;50.078;14.854;2023-01-26T04:25:08;13.30;;;6.60;;
76475;SDS011;65308;50.078;14.854;2023-01-26T04:27:37;14.30;;;7.28;;
76475;SDS011;65308;50.078;14.854;2023-01-26T04:30:07;15.05;;;7.15;;
76475;SDS011;65308;50.078;14.854;2023-01-26T04:32:35;15.52;;;7.20;;
76475;SDS011;65308;50.078;14.854;2023-01-26T04:35:04;14.57;;;6.22;;
76475;SDS011;65308;50.078;14.854;2023-01-26T04:37:32;17.90;;;8.02;;
76475;SDS011;65308;50.078;14.854;2023-01-26T04:39:59;16.13;;;7.15;;
76475;SDS011;65308;50.078;14.854;2023-01-26T04:42:25;19.05;;;8.00;;
76475;SDS011;65308;50.078;14.854;2023-01-26T04:44:52;16.08;;;6.82;;
76475;SDS011;65308;50.078;14.854;2023-01-26T04:47:28;13.60;;;6.35;;
76475;SDS011;65308;50.078;14.854;2023-01-26T04:49:56;17.60;;;7.38;;
76475;SDS011;65308;50.078;14.854;2023-01-26T04:52:26;18.70;;;7.93;;
76475;SDS011;65308;50.078;14.854;2023-01-26T04:54:52;15.00;;;6.65;;
76475;SDS011;65308;50.078;14.854;2023-01-26T04:57:20;16.98;;;7.25;;
76475;SDS011;65308;50.078;14.854;2023-01-26T04:59:48;17.02;;;7.47;;
76475;SDS011;65308;50.078;14.854;2023-01-26T05:02:15;18.20;;;7.93;;
76475;SDS011;65308;50.078;14.854;2023-01-26T05:04:42;19.23;;;10.20;;
76475;SDS011;65308;50.078;14.854;2023-01-26T05:07:08;17.40;;;8.07;;
76475;SDS011;65308;50.078;14.854;2023-01-26T05:09:37;20.40;;;9.30;;
76475;SDS011;65308;50.078;14.854;2023-01-26T05:12:04;18.27;;;8.65;;
76475;SDS011;65308;50.078;14.854;2023-01-26T05:14:45;18.55;;;8.40;;
76475;SDS011;65308;50.078;14.854;2023-01-26T05:17:11;20.70;;;8.57;;
76475;SDS011;65308;50.078;14.854;2023-01-26T05:19:38;19.13;;;8.65;;
76475;SDS011;65308;50.078;14.854;2023-01-26T05:22:05;20.33;;;10.18;;
76475;SDS011;65308;50.078;14.854;2023-01-26T05:24:32;18.83;;;9.43;;
76475;SDS011;65308;50.078;14.854;2023-01-26T05:27:02;21.00;;;11.35;;
76475;SDS011;65308;50.078;14.854;2023-01-26T05:29:47;22.33;;;10.32;;
76475;SDS011;65308;50.078;14.854;2023-01-26T05:32:15;20.02;;;8.30;;
76475;SDS011;65308;50.078;14.854;2023-01-26T05:34:42;17.63;;;8.52;;
76475;SDS011;65308;50.078;14.854;2023-01-26T05:37:09;17.63;;;9.10;;
76475;SDS011;65308;50.078;14.854;2023-01-26T05:39:35;18.23;;;8.35;;
76475;SDS011;65308;50.078;14.854;2023-01-26T05:42:09;21.15;;;9.55;;
76475;SDS011;65308;50.078;14.854;2023-01-26T05:44:42;16.48;;;7.97;;
76475;SDS011;65308;50.078;14.854;2023-01-26T05:47:12;16.23;;;7.07;;
76475;SDS011;65308;50.078;14.854;2023-01-26T05:49:39;15.55;;;7.03;;
76475;SDS011;65308;50.078;14.854;2023-01-26T05:52:10;17.98;;;7.30;;
76475;SDS011;65308;50.078;14.854;2023-01-26T05:54:38;16.35;;;7.68;;
76475;SDS011;65308;50.078;14.854;2023-01-26T05:57:10;15.77;;;8.02;;
76475;SDS011;65308;50.078;14.854;2023-01-26T05:59:37;13.90;;;6.75;;
76475;SDS011;65308;50.078;14.854;2023-01-26T06:04:31;14.15;;;6.70;;
76475;SDS011;65308;50.078;14.854;2023-01-26T06:06:58;15.18;;;7.80;;
76475;SDS011;65308;50.078;14.854;2023-01-26T06:09:25;15.75;;;8.25;;
76475;SDS011;65308;50.078;14.854;2023-01-26T06:11:51;15.38;;;6.78;;
76475;SDS011;65308;50.078;14.854;2023-01-26T06:14:19;17.02;;;7.90;;
76475;SDS011;65308;50.078;14.854;2023-01-26T06:16:46;15.93;;;7.38;;
76475;SDS011;65308;50.078;14.854;2023-01-26T06:19:13;22.95;;;11.52;;
76475;SDS011;65308;50.078;14.854;2023-01-26T06:21:40;17.88;;;8.68;;
76475;SDS011;65308;50.078;14.854;2023-01-26T06:24:07;11.30;;;6.05;;
76475;SDS011;65308;50.078;14.854;2023-01-26T06:29:01;13.57;;;6.03;;
76475;SDS011;65308;50.078;14.854;2023-01-26T06:31:29;13.98;;;6.25;;
76475;SDS011;65308;50.078;14.854;2023-01-26T06:33:56;11.90;;;6.10;;
76475;SDS011;65308;50.078;14.854;2023-01-26T06:36:23;15.38;;;7.30;;
76475;SDS011;65308;50.078;14.854;2023-01-26T06:38:50;15.13;;;7.75;;
76475;SDS011;65308;50.078;14.854;2023-01-26T06:41:18;14.52;;;7.22;;
76475;SDS011;65308;50.078;14.854;2023-01-26T06:43:45;16.80;;;7.47;;
76475;SDS011;65308;50.078;14.854;2023-01-26T06:46:13;14.93;;;6.80;;
76475;SDS011;65308;50.078;14.854;2023-01-26T06:48:43;13.15;;;6.50;;
76475;SDS011;65308;50.078;14.854;2023-01-26T06:51:34;13.38;;;6.15;;
76475;SDS011;65308;50.078;14.854;2023-01-26T06:54:08;13.07;;;6.50;;
76475;SDS011;65308;50.078;14.854;2023-01-26T06:56:36;13.77;;;6.00;;
76475;SDS011;65308;50.078;14.854;2023-01-26T06:59:03;12.90;;;6.05;;
76475;SDS011;65308;50.078;14.854;2023-01-26T07:01:31;13.35;;;6.43;;
76475;SDS011;65308;50.078;14.854;2023-01-26T07:04:02;16.05;;;7.10;;
76475;SDS011;65308;50.078;14.854;2023-01-26T07:06:30;13.30;;;6.45;;
76475;SDS011;65308;50.078;14.854;2023-01-26T07:08:56;14.88;;;7.60;;
76475;SDS011;65308;50.078;14.854;2023-01-26T07:11:23;13.15;;;6.60;;
76475;SDS011;65308;50.078;14.854;2023-01-26T07:13:54;13.32;;;6.22;;
76475;SDS011;65308;50.078;14.854;2023-01-26T07:16:23;14.88;;;7.25;;
76475;SDS011;65308;50.078;14.854;2023-01-26T07:18:51;14.63;;;6.22;;
76475;SDS011;65308;50.078;14.854;2023-01-26T07:23:50;15.10;;;7.05;;
76475;SDS011;65308;50.078;14.854;2023-01-26T07:26:17;18.42;;;7.68;;
76475;SDS011;65308;50.078;14.854;2023-01-26T07:28:44;16.75;;;8.07;;
76475;SDS011;65308;50.078;14.854;2023-01-26T07:31:11;17.75;;;7.75;;
76475;SDS011;65308;50.078;14.854;2023-01-26T07:33:42;15.00;;;6.88;;
76475;SDS011;65308;50.078;14.854;2023-01-26T07:36:12;16.58;;;7.57;;
76475;SDS011;65308;50.078;14.854;2023-01-26T07:38:42;17.60;;;8.65;;
76475;SDS011;65308;50.078;14.854;2023-01-26T07:41:11;13.98;;;6.82;;
76475;SDS011;65308;50.078;14.854;2023-01-26T07:43:38;16.73;;;7.25;;
76475;SDS011;65308;50.078;14.854;2023-01-26T07:46:08;16.17;;;7.28;;
76475;SDS011;65308;50.078;14.854;2023-01-26T07:48:36;16.13;;;7.25;;
76475;SDS011;65308;50.078;14.854;2023-01-26T07:51:04;16.40;;;7.20;;
76475;SDS011;65308;50.078;14.854;2023-01-26T07:53:33;15.38;;;7.93;;
76475;SDS011;65308;50.078;14.854;2023-01-26T07:56:04;18.23;;;8.77;;
76475;SDS011;65308;50.078;14.854;2023-01-26T07:58:33;19.92;;;8.10;;
76475;SDS011;65308;50.078;14.854;2023-01-26T08:01:04;18.13;;;8.05;;
76475;SDS011;65308;50.078;14.854;2023-01-26T08:03:32;17.17;;;7.93;;
76475;SDS011;65308;50.078;14.854;2023-01-26T08:05:58;14.45;;;7.43;;
76475;SDS011;65308;50.078;14.854;2023-01-26T08:08:25;21.30;;;9.10;;
76475;SDS011;65308;50.078;14.854;2023-01-26T08:10:54;16.98;;;8.70;;
76475;SDS011;65308;50.078;14.854;2023-01-26T08:13:22;18.02;;;8.55;;
76475;SDS011;65308;50.078;14.854;2023-01-26T08:15:51;19.50;;;8.98;;
76475;SDS011;65308;50.078;14.854;2023-01-26T08:18:18;18.38;;;8.32;;
76475;SDS011;65308;50.078;14.854;2023-01-26T08:20:48;18.80;;;8.50;;
76475;SDS011;65308;50.078;14.854;2023-01-26T08:23:16;17.27;;;8.20;;
76475;SDS011;65308;50.078;14.854;2023-01-26T08:25:43;17.27;;;8.13;;
76475;SDS011;65308;50.078;14.854;2023-01-26T08:28:10;17.27;;;8.20;;
76475;SDS011;65308;50.078;14.854;2023-01-26T08:30:37;18.15;;;9.05;;
76475;SDS011;65308;50.078;14.854;2023-01-26T08:33:06;16.98;;;7.95;;
76475;SDS011;65308;50.078;14.854;2023-01-26T08:35:33;14.18;;;7.18;;
76475;SDS011;65308;50.078;14.854;2023-01-26T08:38:00;12.75;;;6.13;;
76475;SDS011;65308;50.078;14.854;2023-01-26T08:40:27;13.13;;;6.43;;
76475;SDS011;65308;50.078;14.854;2023-01-26T08:42:53;15.52;;;7.13;;
76475;SDS011;65308;50.078;14.854;2023-01-26T08:45:27;14.98;;;6.70;;
76475;SDS011;65308;50.078;14.854;2023-01-26T08:47:54;16.17;;;7.40;;
76475;SDS011;65308;50.078;14.854;2023-01-26T08:50:23;16.50;;;7.47;;
76475;SDS011;65308;50.078;14.854;2023-01-26T08:52:51;16.45;;;7.85;;
76475;SDS011;65308;50.078;14.854;2023-01-26T08:55:20;18.23;;;7.13;;
76475;SDS011;65308;50.078;14.854;2023-01-26T08:57:50;13.80;;;6.50;;
76475;SDS011;65308;50.078;14.854;2023-01-26T09:00:19;16.48;;;7.32;;
76475;SDS011;65308;50.078;14.854;2023-01-26T09:02:46;16.65;;;7.97;;
76475;SDS011;65308;50.078;14.854;2023-01-26T09:05:14;14.98;;;7.63;;
76475;SDS011;65308;50.078;14.854;2023-01-26T09:07:42;14.95;;;7.60;;
76475;SDS011;65308;50.078;14.854;2023-01-26T09:10:10;17.10;;;7.45;;
76475;SDS011;65308;50.078;14.854;2023-01-26T09:12:36;17.65;;;7.07;;
76475;SDS011;65308;50.078;14.854;2023-01-26T09:15:03;15.90;;;6.97;;
76475;SDS011;65308;50.078;14.854;2023-01-26T09:17:31;16.50;;;7.88;;
76475;SDS011;65308;50.078;14.854;2023-01-26T09:19:58;18.58;;;8.55;;
76475;SDS011;65308;50.078;14.854;2023-01-26T09:22:25;20.10;;;10.38;;
76475;SDS011;65308;50.078;14.854;2023-01-26T09:27:18;19.48;;;8.52;;
76475;SDS011;65308;50.078;14.854;2023-01-26T09:29:45;22.60;;;10.38;;
76475;SDS011;65308;50.078;14.854;2023-01-26T09:32:11;20.10;;;9.73;;
76475;SDS011;65308;50.078;14.854;2023-01-26T09:34:38;19.92;;;9.15;;
76475;SDS011;65308;50.078;14.854;2023-01-26T09:37:05;19.33;;;8.38;;
76475;SDS011;65308;50.078;14.854;2023-01-26T09:39:32;19.63;;;8.85;;
76475;SDS011;65308;50.078;14.854;2023-01-26T09:42:05;17.67;;;8.55;;
76475;SDS011;65308;50.078;14.854;2023-01-26T09:44:47;21.08;;;8.57;;
76475;SDS011;65308;50.078;14.854;2023-01-26T09:47:21;18.35;;;8.63;;
76475;SDS011;65308;50.078;14.854;2023-01-26T09:49:55;16.42;;;8.43;;
76475;SDS011;65308;50.078;14.854;2023-01-26T09:52:27;19.75;;;8.70;;
76475;SDS011;65308;50.078;14.854;2023-01-26T09:54:59;18.23;;;8.63;;
76475;SDS011;65308;50.078;14.854;2023-01-26T09:57:31;20.50;;;8.68;;
76475;SDS011;65308;50.078;14.854;2023-01-26T10:00:06;17.02;;;7.35;;
76475;SDS011;65308;50.078;14.854;2023-01-26T10:15:33;20.17;;;8.63;;
76475;SDS011;65308;50.078;14.854;2023-01-26T10:18:05;21.98;;;9.43;;
76475;SDS011;65308;50.078;14.854;2023-01-26T10:20:35;18.13;;;7.95;;
76475;SDS011;65308;50.078;14.854;2023-01-26T10:23:05;18.55;;;8.18;;
76475;SDS011;65308;50.078;14.854;2023-01-26T10:25:38;17.83;;;8.27;;
76475;SDS011;65308;50.078;14.854;2023-01-26T10:28:10;22.60;;;8.15;;
76475;SDS011;65308;50.078;14.854;2023-01-26T10:33:13;18.10;;;8.23;;
76475;SDS011;65308;50.078;14.854;2023-01-26T10:35:42;17.90;;;8.20;;
76475;SDS011;65308;50.078;14.854;2023-01-26T10:38:28;16.65;;;8.02;;
76475;SDS011;65308;50.078;14.854;2023-01-26T10:41:05;17.60;;;8.43;;
76475;SDS011;65308;50.078;14.854;2023-01-26T10:43:34;19.65;;;8.00;;
76475;SDS011;65308;50.078;14.854;2023-01-26T10:46:05;18.35;;;8.30;;
76475;SDS011;65308;50.078;14.854;2023-01-26T10:48:33;21.70;;;8.80;;
76475;SDS011;65308;50.078;14.854;2023-01-26T10:51:12;20.80;;;9.73;;
76475;SDS011;65308;50.078;14.854;2023-01-26T10:53:40;17.77;;;7.72;;
76475;SDS011;65308;50.078;14.854;2023-01-26T10:56:10;17.15;;;7.78;;
76475;SDS011;65308;50.078;14.854;2023-01-26T10:58:42;16.58;;;8.20;;
76475;SDS011;65308;50.078;14.854;2023-01-26T11:01:12;16.20;;;7.72;;
76475;SDS011;65308;50.078;14.854;2023-01-26T11:03:42;13.93;;;7.28;;
76475;SDS011;65308;50.078;14.854;2023-01-26T11:06:26;14.00;;;6.88;;
76475;SDS011;65308;50.078;14.854;2023-01-26T11:08:53;16.35;;;7.63;;
76475;SDS011;65308;50.078;14.854;2023-01-26T11:11:33;17.52;;;7.78;;
76475;SDS011;65308;50.078;14.854;2023-01-26T11:14:08;16.17;;;7.38;;
76475;SDS011;65308;50.078;14.854;2023-01-26T11:16:36;17.15;;;7.88;;
76475;SDS011;65308;50.078;14.854;2023-01-26T11:19:06;16.25;;;7.72;;
76475;SDS011;65308;50.078;14.854;2023-01-26T11:21:50;19.38;;;8.00;;
76475;SDS011;65308;50.078;14.854;2023-01-26T11:24:21;19.15;;;8.25;;
76475;SDS011;65308;50.078;14.854;2023-01-26T11:26:56;22.33;;;9.30;;
76475;SDS011;65308;50.078;14.854;2023-01-26T11:32:53;18.63;;;8.07;;
76475;SDS011;65308;50.078;14.854;2023-01-26T11:35:28;16.35;;;7.80;;
76475;SDS011;65308;50.078;14.854;2023-01-26T11:38:02;18.48;;;7.85;;
76475;SDS011;65308;50.078;14.854;2023-01-26T11:40:41;18.13;;;7.85;;
76475;SDS011;65308;50.078;14.854;2023-01-26T11:43:19;17.15;;;7.63;;
76475;SDS011;65308;50.078;14.854;2023-01-26T11:48:45;17.25;;;7.43;;
76475;SDS011;65308;50.078;14.854;2023-01-26T11:51:24;15.75;;;7.32;;
76475;SDS011;65308;50.078;14.854;2023-01-26T11:54:07;15.82;;;6.70;;
76475;SDS011;65308;50.078;14.854;2023-01-26T11:56:47;18.55;;;7.80;;
76475;SDS011;65308;50.078;14.854;2023-01-26T11:59:17;12.95;;;6.68;;
76475;SDS011;65308;50.078;14.854;2023-01-26T12:01:47;13.75;;;6.25;;
76475;SDS011;65308;50.078;14.854;2023-01-26T12:04:20;14.25;;;7.15;;
76475;SDS011;65308;50.078;14.854;2023-01-26T12:06:49;15.63;;;6.75;;
76475;SDS011;65308;50.078;14.854;2023-01-26T12:09:20;15.02;;;7.05;;
76475;SDS011;65308;50.078;14.854;2023-01-26T12:11:56;14.75;;;6.45;;
76475;SDS011;65308;50.078;14.854;2023-01-26T12:19:35;14.30;;;7.00;;
76475;SDS011;65308;50.078;14.854;2023-01-26T12:45:41;17.33;;;8.23;;
76475;SDS011;65308;50.078;14.854;2023-01-26T12:48:14;19.35;;;8.15;;
76475;SDS011;65308;50.078;14.854;2023-01-26T12:50:46;17.23;;;7.85;;
76475;SDS011;65308;50.078;14.854;2023-01-26T12:53:18;16.00;;;7.88;;
76475;SDS011;65308;50.078;14.854;2023-01-26T12:55:49;15.35;;;7.70;;
76475;SDS011;65308;50.078;14.854;2023-01-26T12:58:20;19.65;;;8.55;;
76475;SDS011;65308;50.078;14.854;2023-01-26T13:00:55;16.15;;;8.02;;
76475;SDS011;65308;50.078;14.854;2023-01-26T13:03:27;16.70;;;8.57;;
76475;SDS011;65308;50.078;14.854;2023-01-26T13:06:19;16.45;;;8.00;;
76475;SDS011;65308;50.078;14.854;2023-01-26T13:08:51;17.77;;;8.38;;
76475;SDS011;65308;50.078;14.854;2023-01-26T13:11:49;16.92;;;8.80;;
76475;SDS011;65308;50.078;14.854;2023-01-26T13:14:33;17.27;;;8.23;;
76475;SDS011;65308;50.078;14.854;2023-01-26T13:20:24;15.65;;;7.13;;
76475;SDS011;65308;50.078;14.854;2023-01-26T13:23:25;15.35;;;7.60;;
76475;SDS011;65308;50.078;14.854;2023-01-26T13:26:12;16.80;;;7.72;;
76475;SDS011;65308;50.078;14.854;2023-01-26T13:28:41;16.17;;;7.70;;
76475;SDS011;65308;50.078;14.854;2023-01-26T13:31:09;15.65;;;7.75;;
76475;SDS011;65308;50.078;14.854;2023-01-26T13:33:45;17.70;;;8.02;;
76475;SDS011;65308;50.078;14.854;2023-01-26T13:38:46;13.02;;;6.70;;
76475;SDS011;65308;50.078;14.854;2023-01-26T13:41:20;14.30;;;7.18;;
76475;SDS011;65308;50.078;14.854;2023-01-26T13:43:48;14.15;;;7.07;;
76475;SDS011;65308;50.078;14.854;2023-01-26T13:46:19;16.48;;;7.47;;
76475;SDS011;65308;50.078;14.854;2023-01-26T13:48:54;14.30;;;7.15;;
76475;SDS011;65308;50.078;14.854;2023-01-26T13:51:22;13.88;;;7.22;;
76475;SDS011;65308;50.078;14.854;2023-01-26T13:53:57;13.68;;;7.03;;
76475;SDS011;65308;50.078;14.854;2023-01-26T13:56:30;14.57;;;7.10;;
76475;SDS011;65308;50.078;14.854;2023-01-26T13:59:03;15.93;;;7.40;;
76475;SDS011;65308;50.078;14.854;2023-01-26T14:01:39;13.77;;;7.07;;
76475;SDS011;65308;50.078;14.854;2023-01-26T14:04:19;17.85;;;7.43;;
76475;SDS011;65308;50.078;14.854;2023-01-26T14:06:48;18.35;;;7.55;;
76475;SDS011;65308;50.078;14.854;2023-01-26T14:09:20;15.07;;;7.05;;
76475;SDS011;65308;50.078;14.854;2023-01-26T14:11:52;14.07;;;6.97;;
76475;SDS011;65308;50.078;14.854;2023-01-26T14:14:24;14.32;;;6.43;;
76475;SDS011;65308;50.078;14.854;2023-01-26T14:16:52;14.07;;;7.07;;
76475;SDS011;65308;50.078;14.854;2023-01-26T14:19:20;14.80;;;7.35;;
76475;SDS011;65308;50.078;14.854;2023-01-26T14:21:49;14.98;;;6.45;;
76475;SDS011;65308;50.078;14.854;2023-01-26T14:24:25;13.70;;;7.18;;
76475;SDS011;65308;50.078;14.854;2023-01-26T14:26:56;16.23;;;7.40;;
76475;SDS011;65308;50.078;14.854;2023-01-26T14:29:24;15.27;;;6.93;;
76475;SDS011;65308;50.078;14.854;2023-01-26T14:31:54;15.45;;;7.28;;
76475;SDS011;65308;50.078;14.854;2023-01-26T14:34:24;16.42;;;7.97;;
76475;SDS011;65308;50.078;14.854;2023-01-26T14:37:05;14.30;;;7.35;;
76475;SDS011;65308;50.078;14.854;2023-01-26T14:39:35;15.00;;;7.70;;
76475;SDS011;65308;50.078;14.854;2023-01-26T14:42:03;16.00;;;7.63;;
76475;SDS011;65308;50.078;14.854;2023-01-26T14:44:30;16.33;;;7.72;;
76475;SDS011;65308;50.078;14.854;2023-01-26T14:46:59;18.33;;;7.70;;
76475;SDS011;65308;50.078;14.854;2023-01-26T14:49:36;17.77;;;8.23;;
76475;SDS011;65308;50.078;14.854;2023-01-26T14:52:14;16.85;;;8.27;;
76475;SDS011;65308;50.078;14.854;2023-01-26T14:54:46;15.27;;;7.57;;
76475;SDS011;65308;50.078;14.854;2023-01-26T14:57:15;16.25;;;8.13;;
76475;SDS011;65308;50.078;14.854;2023-01-26T14:59:45;16.45;;;7.95;;
76475;SDS011;65308;50.078;14.854;2023-01-26T15:02:15;17.25;;;8.55;;
76475;SDS011;65308;50.078;14.854;2023-01-26T15:04:54;15.45;;;7.55;;
76475;SDS011;65308;50.078;14.854;2023-01-26T15:07:31;15.93;;;7.95;;
76475;SDS011;65308;50.078;14.854;2023-01-26T15:10:02;16.88;;;8.52;;
76475;SDS011;65308;50.078;14.854;2023-01-26T15:12:32;18.02;;;8.40;;
76475;SDS011;65308;50.078;14.854;2023-01-26T15:15:10;18.23;;;7.88;;
76475;SDS011;65308;50.078;14.854;2023-01-26T15:17:39;17.52;;;9.07;;
76475;SDS011;65308;50.078;14.854;2023-01-26T15:23:14;20.33;;;8.60;;
76475;SDS011;65308;50.078;14.854;2023-01-26T15:25:49;19.98;;;9.20;;
76475;SDS011;65308;50.078;14.854;2023-01-26T15:28:16;16.77;;;8.38;;
76475;SDS011;65308;50.078;14.854;2023-01-26T15:30:45;17.73;;;8.43;;
76475;SDS011;65308;50.078;14.854;2023-01-26T15:38:50;16.90;;;8.50;;
76475;SDS011;65308;50.078;14.854;2023-01-26T15:41:26;18.65;;;9.68;;
76475;SDS011;65308;50.078;14.854;2023-01-26T15:46:22;20.55;;;9.77;;
76475;SDS011;65308;50.078;14.854;2023-01-26T15:48:50;20.20;;;9.85;;
76475;SDS011;65308;50.078;14.854;2023-01-26T15:51:17;19.38;;;8.63;;
76475;SDS011;65308;50.078;14.854;2023-01-26T15:53:44;18.25;;;8.90;;
76475;SDS011;65308;50.078;14.854;2023-01-26T15:56:11;19.25;;;9.35;;
76475;SDS011;65308;50.078;14.854;2023-01-26T15:58:41;19.90;;;8.77;;
76475;SDS011;65308;50.078;14.854;2023-01-26T16:01:09;20.65;;;8.88;;